Time;durP1;ratioP1;P1;durP2;ratioP2;P2;SDS_P1;SDS_P2;PMS_P1;PMS_P2;Temp;Humidity;BMP_temperature;BMP_pressure;BME280_temperature;BME280_humidity;BME280_pressure;Samples;Min_cycle;Max_cycle;Signal;HPM_P1;HPM_P2
2022/05/09 00:00:36;;;;;;;9.50;8.40;;;;;;;10.40;77.91;97841.58;110044;1250;59710;-69
2022/05/09 00:03:06;;;;;;;11.60;9.40;;;;;;;10.34;75.07;97839.66;109945;1250;59675;-67
2022/05/09 00:05:36;;;;;;;10.20;7.90;;;;;;;10.28;74.48;97836.77;109988;1250;71595;-69
2022/05/09 00:08:07;;;;;;;10.00;8.00;;;;;;;10.22;75.37;97839.02;110038;1250;66886;-68
2022/05/09 00:10:37;;;;;;;12.50;9.90;;;;;;;10.16;78.18;97839.75;110209;1249;68955;-70
2022/05/09 00:13:06;;;;;;;12.50;10.10;;;;;;;10.11;79.48;97838.70;110083;1249;60125;-71
2022/05/09 00:15:36;;;;;;;16.70;10.90;;;;;;;10.05;79.53;97841.15;110006;1250;59660;-72
2022/05/09 00:18:07;;;;;;;14.10;11.30;;;;;;;10.01;80.87;97838.99;110143;1249;71583;-67
2022/05/09 00:20:38;;;;;;;14.00;11.30;;;;;;;9.96;81.30;97842.60;109995;1250;67774;-70
2022/05/09 00:23:08;;;;;;;13.50;11.10;;;;;;;9.92;81.59;97843.92;110162;1249;68474;-69
2022/05/09 00:25:38;;;;;;;;;;;;;;;9.86;81.99;97840.97;110181;1247;59665;-69
2022/05/09 00:28:08;;;;;;;13.70;11.00;;;;;;;9.83;82.03;97842.70;110160;1247;60081;-68
2022/05/09 00:30:39;;;;;;;13.10;10.50;;;;;;;9.81;81.47;97843.23;110117;1249;71528;-68
2022/05/09 00:33:09;;;;;;;13.30;10.10;;;;;;;9.77;81.67;97841.73;109979;1250;68502;-68
2022/05/09 00:35:44;;;;;;;14.00;10.80;;;;;;;9.74;81.19;97843.66;109981;1249;68540;-67
2022/05/09 00:38:14;;;;;;;12.40;9.60;;;;;;;9.70;81.74;97837.08;110163;1249;59672;-69
2022/05/09 00:41:28;;;;;;;14.00;11.10;;;;;;;9.68;81.61;97839.85;109949;1250;59733;-69
2022/05/09 00:43:38;;;;;;;14.70;11.80;;;;;;;9.64;81.95;97837.45;110034;1248;71530;-67
2022/05/09 00:46:08;;;;;;;14.50;12.10;;;;;;;9.61;82.63;97836.47;110027;1250;68542;-70
2022/05/09 00:48:39;;;;;;;14.10;11.50;;;;;;;9.55;82.29;97837.19;109835;1250;69249;-69
2022/05/09 00:51:12;;;;;;;13.60;11.90;;;;;;;9.46;83.22;97835.99;110033;1250;59700;-67
2022/05/09 00:53:43;;;;;;;14.00;11.20;;;;;;;9.39;82.59;97832.03;110041;1250;59609;-67
2022/05/09 00:56:21;;;;;;;15.40;11.20;;;;;;;9.34;83.30;97827.69;109992;1250;70755;-68
2022/05/09 00:58:57;;;;;;;18.80;12.00;;;;;;;9.30;83.52;97828.96;109954;1249;68061;-68
2022/05/09 01:01:28;;;;;;;14.50;11.00;;;;;;;9.27;83.02;97826.71;109941;1250;68496;-69
2022/05/09 01:04:12;;;;;;;15.20;11.50;;;;;;;9.23;83.70;97827.46;109775;1250;59753;-72
2022/05/09 01:06:43;;;;;;;13.20;11.50;;;;;;;9.19;83.69;97827.52;109975;1250;59744;-73
2022/05/09 01:09:12;;;;;;;15.40;11.80;;;;;;;9.12;83.45;97826.91;109840;1250;71524;-71
2022/05/09 01:11:45;;;;;;;14.00;10.90;;;;;;;9.06;82.77;97828.80;110017;1250;67778;-69
2022/05/09 01:14:29;;;;;;;12.40;10.40;;;;;;;9.01;82.24;97831.40;110013;1250;67721;-68
2022/05/09 01:17:00;;;;;;;13.10;10.60;;;;;;;8.98;79.38;97830.19;109973;1250;59748;-67
2022/05/09 01:19:34;;;;;;;16.70;12.00;;;;;;;8.95;79.05;97830.88;109935;1250;59686;-67
2022/05/09 01:22:25;;;;;;;14.60;11.90;;;;;;;8.93;79.67;97831.90;109733;1250;70902;-70
2022/05/09 01:25:03;;;;;;;13.20;10.60;;;;;;;8.87;80.02;97827.20;110003;1250;68675;-67
2022/05/09 01:27:36;;;;;;;15.60;11.10;;;;;;;8.83;79.96;97824.14;110031;1250;68621;-75
2022/05/09 01:30:12;;;;;;;14.90;11.60;;;;;;;8.78;79.67;97821.33;109954;1250;59736;-71
2022/05/09 01:33:01;;;;;;;16.70;13.50;;;;;;;8.74;78.85;97828.52;109876;1251;59757;-70
2022/05/09 01:35:40;;;;;;;17.30;12.60;;;;;;;8.67;79.20;97831.67;110090;1250;71552;-70
2022/05/09 01:38:38;;;;;;;13.70;11.10;;;;;;;8.62;79.78;97829.37;109926;1250;68388;-69
2022/05/09 01:41:10;;;;;;;16.60;10.70;;;;;;;8.55;80.63;97833.05;110020;1250;68625;-68
2022/05/09 01:43:48;;;;;;;15.80;11.80;;;;;;;8.48;81.28;97838.01;109976;1250;59680;-70
2022/05/09 01:46:23;;;;;;;15.40;12.20;;;;;;;8.41;81.57;97833.52;109889;1250;59656;-67
2022/05/09 01:51:46;;;;;;;16.30;12.00;;;;;;;8.31;85.51;97835.10;110044;1250;68684;-68
2022/05/09 01:54:16;;;;;;;14.90;11.40;;;;;;;8.30;87.05;97839.71;109965;1250;68644;-68
2022/05/09 01:56:46;;;;;;;13.90;10.30;;;;;;;8.28;86.13;97836.36;109907;1250;59717;-69
2022/05/09 01:59:19;;;;;;;16.00;12.00;;;;;;;8.27;86.32;97838.81;109951;1249;59755;-67
2022/05/09 02:01:56;;;;;;;12.70;10.10;;;;;;;8.25;87.27;97838.91;109984;1250;70961;-69
2022/05/09 02:04:27;;;;;;;13.40;10.30;;;;;;;8.24;86.83;97840.38;109857;1250;67835;-67
2022/05/09 02:06:59;;;;;;;14.80;10.50;;;;;;;8.23;86.65;97840.96;109925;1250;68602;-69
2022/05/09 02:09:31;;;;;;;12.30;10.10;;;;;;;8.20;87.03;97840.75;109889;1250;59738;-68
2022/05/09 02:12:07;;;;;;;11.90;9.20;;;;;;;8.18;86.35;97842.60;110006;1250;59749;-68
2022/05/09 02:14:38;;;;;;;13.50;10.20;;;;;;;8.16;85.74;97842.91;110042;1250;70588;-67
2022/05/09 02:17:09;;;;;;;12.50;8.60;;;;;;;8.13;85.20;97840.80;110005;1250;67778;-69
2022/05/09 02:19:41;;;;;;;12.60;9.00;;;;;;;8.10;83.65;97838.20;110025;1250;67890;-67
2022/05/09 02:22:11;;;;;;;13.10;8.90;;;;;;;8.08;83.42;97841.77;109984;1249;59701;-67
2022/05/09 02:24:41;;;;;;;14.10;10.60;;;;;;;8.08;85.52;97841.11;109959;1250;59711;-68
2022/05/09 02:27:13;;;;;;;16.40;13.10;;;;;;;8.06;86.46;97846.91;109857;1250;70803;-70
2022/05/09 02:29:44;;;;;;;18.30;13.10;;;;;;;8.05;87.21;97845.09;109954;1250;68245;-67
2022/05/09 02:32:16;;;;;;;13.30;9.60;;;;;;;8.02;86.93;97848.91;109969;1250;69532;-71
2022/05/09 02:34:47;;;;;;;16.40;10.00;;;;;;;7.99;86.48;97850.81;109871;1250;59699;-70
2022/05/09 02:37:18;;;;;;;11.80;9.30;;;;;;;7.97;85.62;97850.25;110078;1250;59668;-69
2022/05/09 02:39:48;;;;;;;11.70;9.70;;;;;;;7.96;87.56;97852.38;109985;1250;70791;-68
2022/05/09 02:42:18;;;;;;;12.90;9.90;;;;;;;7.95;86.93;97851.90;110026;1250;67658;-68
2022/05/09 02:44:49;;;;;;;14.60;10.40;;;;;;;7.94;87.01;97854.73;109913;1250;69271;-69
2022/05/09 02:47:20;;;;;;;12.80;10.30;;;;;;;7.94;87.04;97858.38;109978;1250;59670;-68
2022/05/09 02:49:51;;;;;;;12.80;9.50;;;;;;;7.92;86.99;97858.67;109992;1250;59755;-68
2022/05/09 02:52:21;;;;;;;14.90;12.30;;;;;;;7.93;87.56;97859.81;110005;1250;70564;-68
2022/05/09 02:54:51;;;;;;;14.80;10.50;;;;;;;7.94;88.56;97859.41;110015;1250;67602;-68
2022/05/09 02:57:22;;;;;;;;;;;;;;;7.94;88.46;97857.85;110145;1250;68698;-69
2022/05/09 02:59:53;;;;;;;12.90;9.90;;;;;;;7.92;87.95;97863.51;110161;1249;59756;-67
2022/05/09 03:02:22;;;;;;;14.10;11.70;;;;;;;7.91;86.94;97863.91;109990;1250;59745;-68
2022/05/09 03:04:52;;;;;;;15.40;11.70;;;;;;;7.90;86.78;97868.65;110090;1250;71976;-69
2022/05/09 03:07:22;;;;;;;15.30;10.80;;;;;;;7.90;87.19;97870.22;109979;1250;68560;-72
2022/05/09 03:09:52;;;;;;;13.30;11.00;;;;;;;7.92;87.06;97871.86;110051;1250;68625;-73
2022/05/09 03:12:22;;;;;;;14.30;11.40;;;;;;;7.95;87.39;97873.42;110175;1249;59673;-68
2022/05/09 03:14:52;;;;;;;14.80;11.90;;;;;;;7.99;87.44;97872.48;109932;1250;59748;-67
2022/05/09 03:17:21;;;;;;;16.70;12.30;;;;;;;8.05;87.69;97875.83;109801;1250;70573;-68
2022/05/09 03:19:51;;;;;;;15.20;10.60;;;;;;;8.09;87.13;97872.80;109948;1250;67793;-67
2022/05/09 03:22:26;;;;;;;15.20;11.70;;;;;;;8.11;86.06;97870.61;109975;1250;68675;-67
2022/05/09 03:24:58;;;;;;;15.70;11.90;;;;;;;8.12;85.04;97876.83;110075;1250;59764;-68
2022/05/09 03:27:28;;;;;;;15.90;10.60;;;;;;;8.11;84.77;97879.80;110210;1249;59720;-67
2022/05/09 03:29:57;;;;;;;12.10;8.10;;;;;;;8.12;84.72;97884.61;110175;1249;71340;-69
2022/05/09 03:32:27;;;;;;;13.40;11.40;;;;;;;8.15;84.46;97885.30;109986;1250;67877;-69
2022/05/09 03:34:57;;;;;;;18.80;13.10;;;;;;;8.18;84.97;97891.23;109790;1250;69418;-69
2022/05/09 03:37:26;;;;;;;15.40;11.60;;;;;;;8.25;85.16;97893.98;110205;1249;60190;-68
2022/05/09 03:39:55;;;;;;;12.10;10.10;;;;;;;8.32;85.72;97899.30;109970;1250;59688;-68
2022/05/09 03:42:24;;;;;;;12.90;10.00;;;;;;;8.39;85.13;97898.08;110197;1248;70826;-68
2022/05/09 03:44:53;;;;;;;12.90;11.30;;;;;;;8.46;83.49;97899.28;109966;1250;67851;-68
2022/05/09 03:47:23;;;;;;;13.10;10.40;;;;;;;8.50;82.29;97899.38;110176;1248;69568;-68
2022/05/09 03:49:55;;;;;;;11.70;9.30;;;;;;;8.52;81.61;97901.73;110174;1250;59707;-69
2022/05/09 03:52:25;;;;;;;12.80;9.50;;;;;;;8.54;81.24;97903.16;109816;1250;59714;-69
2022/05/09 03:54:55;;;;;;;12.40;10.20;;;;;;;8.57;81.27;97903.48;109859;1250;70792;-69
2022/05/09 03:57:25;;;;;;;14.50;11.50;;;;;;;8.63;83.22;97907.14;110182;1248;68388;-71
2022/05/09 03:59:54;;;;;;;13.60;9.90;;;;;;;8.70;83.83;97906.23;109965;1250;69526;-67
2022/05/09 04:02:26;;;;;;;16.10;11.60;;;;;;;8.80;83.03;97907.41;110158;1249;59754;-68
2022/05/09 04:04:55;;;;;;;13.20;10.40;;;;;;;8.91;82.37;97908.13;109822;1250;59677;-68
2022/05/09 04:07:24;;;;;;;13.10;8.90;;;;;;;9.03;81.50;97911.41;110160;1250;71402;-68
2022/05/09 04:09:54;;;;;;;14.00;9.30;;;;;;;9.17;81.03;97911.83;109948;1249;68566;-68
2022/05/09 04:12:23;;;;;;;13.20;10.90;;;;;;;9.33;81.22;97912.25;110166;1248;68663;-70
2022/05/09 04:17:39;;;;;;;10.70;8.10;;;;;;;9.85;82.12;97910.66;110144;1249;59655;-68
2022/05/09 04:20:09;;;;;;;10.60;7.80;;;;;;;10.15;81.43;97910.89;109985;1250;70081;-67
2022/05/09 04:22:42;;;;;;;12.40;9.80;;;;;;;10.44;80.88;97915.86;109975;1250;68540;-68
2022/05/09 04:25:15;;;;;;;13.70;9.80;;;;;;;10.63;79.76;97915.33;110139;1249;68587;-69
2022/05/09 04:27:44;;;;;;;13.70;11.90;;;;;;;10.80;79.32;97914.75;109838;1250;59728;-70
2022/05/09 04:30:14;;;;;;;12.00;10.10;;;;;;;10.94;78.54;97915.36;109813;1248;59773;-67
2022/05/09 04:32:44;;;;;;;15.70;12.50;;;;;;;11.02;77.83;97917.66;110189;1250;70773;-67
2022/05/09 04:35:17;;;;;;;15.40;11.40;;;;;;;10.98;77.42;97920.51;110218;1250;68243;-68
2022/05/09 04:37:48;;;;;;;13.70;11.50;;;;;;;11.08;77.20;97920.58;110006;1250;69461;-69
2022/05/09 04:40:20;;;;;;;14.60;11.60;;;;;;;11.13;76.81;97924.93;109796;1250;59652;-67
2022/05/09 04:42:50;;;;;;;13.40;11.60;;;;;;;11.15;76.59;97925.16;109860;1250;59695;-68
2022/05/09 04:45:19;;;;;;;15.30;10.80;;;;;;;11.21;76.71;97923.20;110162;1249;71335;-67
2022/05/09 04:47:50;;;;;;;13.30;10.40;;;;;;;11.34;76.59;97924.58;110183;1249;68596;-68
2022/05/09 04:50:23;;;;;;;15.00;12.10;;;;;;;11.49;76.13;97925.66;110007;1249;69516;-69
2022/05/09 04:52:53;;;;;;;15.10;10.10;;;;;;;11.62;75.62;97925.46;110201;1249;59629;-69
2022/05/09 04:55:24;;;;;;;12.80;9.60;;;;;;;11.82;75.66;97926.52;110159;1249;59718;-72
2022/05/09 04:57:55;;;;;;;13.60;11.40;;;;;;;12.10;75.23;97928.23;109914;1250;70764;-71
2022/05/09 05:00:26;;;;;;;12.90;10.50;;;;;;;12.39;74.04;97932.33;109970;1248;68543;-70
2022/05/09 05:02:56;;;;;;;17.20;10.60;;;;;;;12.65;72.04;97932.13;110032;1250;68600;-70
2022/05/09 05:05:26;;;;;;;17.60;12.00;;;;;;;12.91;71.81;97937.04;109948;1250;59709;-68
2022/05/09 05:07:55;;;;;;;12.20;8.60;;;;;;;13.17;70.69;97939.86;110178;1250;59661;-67
2022/05/09 05:10:30;;;;;;;11.10;9.80;;;;;;;13.49;70.11;97938.52;110128;1249;71596;-70
2022/05/09 05:13:02;;;;;;;11.60;9.90;;;;;;;13.74;68.49;97932.70;110026;1250;68832;-71
2022/05/09 05:15:32;;;;;;;10.30;8.40;;;;;;;14.05;67.68;97930.46;110136;1249;68660;-67
2022/05/09 05:18:01;;;;;;;11.80;8.90;;;;;;;14.48;68.22;97937.41;110126;1249;59703;-69
2022/05/09 05:20:31;;;;;;;11.70;9.20;;;;;;;15.05;70.62;97939.16;109812;1248;59663;-70
2022/05/09 05:23:00;;;;;;;12.30;9.50;;;;;;;15.41;65.81;97936.27;110142;1250;70798;-68
2022/05/09 05:25:30;;;;;;;10.70;7.60;;;;;;;15.67;62.81;97937.42;110152;1250;67056;-68
2022/05/09 05:27:59;;;;;;;12.40;9.00;;;;;;;16.04;64.65;97941.52;110180;1246;68910;-67
2022/05/09 05:30:29;;;;;;;11.80;9.00;;;;;;;16.46;64.52;97940.94;110176;1248;59706;-68
2022/05/09 05:32:58;;;;;;;8.60;7.60;;;;;;;16.79;62.82;97946.68;110114;1247;59677;-69
2022/05/09 05:35:27;;;;;;;11.50;9.20;;;;;;;17.12;62.72;97942.84;109976;1250;70805;-69
2022/05/09 05:37:56;;;;;;;11.30;8.40;;;;;;;17.03;59.13;97944.31;110009;1250;67435;-68
2022/05/09 05:40:25;;;;;;;10.00;7.30;;;;;;;17.32;58.27;97943.27;110083;1249;68721;-68
2022/05/09 05:42:54;;;;;;;10.00;7.10;;;;;;;17.59;59.15;97942.89;109909;1250;59735;-69
2022/05/09 05:45:24;;;;;;;9.80;6.50;;;;;;;17.84;56.91;97937.08;109947;1250;59579;-70
2022/05/09 05:47:53;;;;;;;8.70;6.70;;;;;;;18.13;57.67;97933.94;110183;1249;71778;-70
2022/05/09 05:50:23;;;;;;;10.30;7.10;;;;;;;18.25;53.89;97932.63;110139;1249;67790;-67
2022/05/09 05:52:52;;;;;;;8.00;6.70;;;;;;;18.40;52.80;97936.27;109991;1250;68578;-70
2022/05/09 05:55:21;;;;;;;9.90;6.80;;;;;;;18.34;52.32;97940.71;109897;1250;59712;-72
2022/05/09 05:57:50;;;;;;;7.50;6.50;;;;;;;18.05;52.48;97940.91;110125;1250;59713;-68
2022/05/09 06:00:22;;;;;;;8.10;7.30;;;;;;;17.50;52.67;97947.71;109928;1250;71727;-71
2022/05/09 06:02:51;;;;;;;7.30;6.00;;;;;;;17.34;53.57;97945.90;110174;1249;68816;-68
2022/05/09 06:05:20;;;;;;;7.80;6.30;;;;;;;17.33;54.30;97949.00;109921;1250;69212;-69
2022/05/09 06:07:54;;;;;;;;;;;;;;;17.28;54.44;97949.78;109897;1250;59717;-70
2022/05/09 06:10:26;;;;;;;9.50;7.30;;;;;;;17.35;54.84;97946.38;110000;1250;59747;-70
2022/05/09 06:12:56;;;;;;;9.50;7.00;;;;;;;17.38;54.31;97946.06;109973;1250;71382;-70
2022/05/09 06:15:25;;;;;;;7.80;6.50;;;;;;;17.31;54.26;97947.08;110057;1250;68711;-68
2022/05/09 06:17:57;;;;;;;8.50;6.80;;;;;;;17.38;53.59;97948.38;109944;1250;68963;-70
2022/05/09 06:20:30;;;;;;;6.80;6.10;;;;;;;17.68;52.96;97946.27;110185;1248;59672;-70
2022/05/09 06:23:00;;;;;;;7.60;6.70;;;;;;;18.12;52.50;97945.14;110072;1250;60150;-69
2022/05/09 06:25:32;;;;;;;9.40;7.20;;;;;;;18.32;51.66;97944.63;110206;1250;71393;-68
2022/05/09 06:28:04;;;;;;;12.70;6.90;;;;;;;18.71;51.16;97944.26;109965;1250;68622;-68
2022/05/09 06:30:34;;;;;;;8.10;6.70;;;;;;;19.16;49.45;97947.93;109962;1249;69538;-73
2022/05/09 06:33:04;;;;;;;7.30;6.30;;;;;;;19.32;48.25;97949.13;109927;1250;59733;-69
2022/05/09 06:35:43;;;;;;;7.10;5.50;;;;;;;19.61;47.07;97945.18;110051;1250;59737;-68
2022/05/09 06:38:15;;;;;;;5.80;5.20;;;;;;;19.83;47.48;97944.88;110159;1249;71558;-69
2022/05/09 06:40:44;;;;;;;5.90;5.00;;;;;;;20.52;45.96;97943.19;110026;1250;68614;-69
2022/05/09 06:43:14;;;;;;;7.50;5.20;;;;;;;21.06;45.01;97944.02;110127;1250;68829;-68
2022/05/09 06:45:44;;;;;;;6.00;4.90;;;;;;;21.43;43.87;97943.25;110186;1249;59745;-69
2022/05/09 06:48:13;;;;;;;5.40;4.90;;;;;;;21.73;43.04;97939.48;110138;1248;59735;-69
2022/05/09 06:50:43;;;;;;;5.60;4.70;;;;;;;22.02;42.22;97939.55;110006;1249;69917;-68
2022/05/09 06:53:12;;;;;;;4.70;4.20;;;;;;;22.47;41.93;97933.55;110238;1249;67841;-71
2022/05/09 06:55:48;;;;;;;6.00;5.30;;;;;;;22.71;40.54;97937.31;110124;1250;69547;-68
2022/05/09 06:58:25;;;;;;;5.20;4.10;;;;;;;23.12;40.54;97936.51;110026;1249;59754;-69
2022/05/09 07:00:56;;;;;;;6.10;4.50;;;;;;;23.39;39.66;97940.16;110157;1250;59661;-70
2022/05/09 07:03:27;;;;;;;5.70;4.50;;;;;;;23.69;40.30;97942.51;109969;1250;70808;-69
2022/05/09 07:05:56;;;;;;;4.70;4.20;;;;;;;23.97;39.05;97936.96;110192;1250;68614;-70
2022/05/09 07:08:32;;;;;;;4.50;3.80;;;;;;;24.24;38.35;97937.45;110167;1250;68743;-69
2022/05/09 07:11:03;;;;;;;4.60;4.10;;;;;;;24.54;37.89;97936.00;109822;1250;59649;-72
2022/05/09 07:13:41;;;;;;;4.80;4.30;;;;;;;24.86;37.37;97938.83;110095;1248;59731;-70
2022/05/09 07:16:11;;;;;;;;;;;;;;;25.17;36.98;97939.66;110208;1250;71623;-71
2022/05/09 07:18:42;;;;;;;6.30;4.70;;;;;;;25.15;35.72;97940.82;110227;1250;68621;-71
2022/05/09 07:21:11;;;;;;;5.20;3.70;;;;;;;25.06;36.10;97942.27;110187;1249;68689;-72
2022/05/09 07:23:40;;;;;;;5.30;4.20;;;;;;;25.07;35.49;97939.64;110161;1250;59711;-72
2022/05/09 07:26:09;;;;;;;6.50;4.40;;;;;;;24.92;34.88;97938.27;109945;1250;59699;-70
2022/05/09 07:28:40;;;;;;;5.20;4.70;;;;;;;25.17;35.09;97942.54;109901;1250;70750;-72
2022/05/09 07:31:10;;;;;;;4.70;4.20;;;;;;;24.74;34.66;97939.39;109981;1250;68594;-73
2022/05/09 07:33:39;;;;;;;5.90;4.60;;;;;;;24.59;34.48;97940.00;110197;1250;68704;-69
2022/05/09 07:36:09;;;;;;;5.70;4.70;;;;;;;24.59;34.88;97935.63;109997;1250;59679;-71
2022/05/09 07:38:38;;;;;;;5.20;4.70;;;;;;;24.68;34.89;97937.52;110034;1250;59692;-69
2022/05/09 07:41:07;;;;;;;6.50;4.80;;;;;;;24.75;35.46;97936.98;110231;1249;69976;-70
2022/05/09 07:43:37;;;;;;;5.20;4.70;;;;;;;24.77;35.92;97939.73;109950;1250;68739;-72
2022/05/09 07:46:12;;;;;;;4.90;4.40;;;;;;;24.69;34.71;97939.63;110025;1250;68649;-70
2022/05/09 07:49:01;;;;;;;5.00;4.30;;;;;;;24.97;34.67;97942.65;110028;1250;59652;-69
2022/05/09 07:51:30;;;;;;;5.40;4.20;;;;;;;24.85;33.65;97946.13;109966;1249;59657;-73
2022/05/09 07:53:59;;;;;;;4.70;4.20;;;;;;;24.67;34.12;97937.06;110014;1250;70777;-71
2022/05/09 07:56:28;;;;;;;6.00;4.10;;;;;;;24.67;34.08;97938.54;110202;1249;68570;-74
2022/05/09 07:58:57;;;;;;;5.00;4.10;;;;;;;24.85;34.40;97940.75;109964;1250;69490;-71
2022/05/09 08:01:26;;;;;;;5.40;4.80;;;;;;;25.24;33.55;97942.83;110053;1250;59658;-72
2022/05/09 08:03:58;;;;;;;5.00;4.50;;;;;;;24.75;34.35;97937.55;109972;1250;59727;-71
2022/05/09 08:06:27;;;;;;;7.20;5.00;;;;;;;24.53;34.85;97935.78;109915;1250;70757;-73
2022/05/09 08:08:56;;;;;;;5.90;5.00;;;;;;;24.27;34.72;97936.79;110046;1249;68081;-72
2022/05/09 08:11:25;;;;;;;7.00;5.00;;;;;;;23.75;35.80;97935.76;110118;1249;69488;-70
2022/05/09 08:13:54;;;;;;;4.90;4.50;;;;;;;23.83;36.04;97937.61;110090;1249;59755;-72
2022/05/09 08:16:26;;;;;;;5.80;4.20;;;;;;;24.40;35.37;97936.46;109987;1250;59657;-71
2022/05/09 08:18:56;;;;;;;4.70;4.20;;;;;;;24.78;34.42;97935.54;110131;1250;70824;-72
2022/05/09 08:21:26;;;;;;;6.20;4.50;;;;;;;24.83;34.71;97940.52;109895;1250;68606;-71
2022/05/09 08:23:56;;;;;;;6.80;4.80;;;;;;;25.12;33.35;97940.80;110174;1249;68081;-71
2022/05/09 08:26:26;;;;;;;6.20;5.40;;;;;;;25.39;33.42;97941.15;110185;1249;60066;-71
2022/05/09 08:28:56;;;;;;;5.20;4.30;;;;;;;25.60;32.97;97943.51;110065;1249;59704;-71
2022/05/09 08:31:25;;;;;;;6.80;4.10;;;;;;;25.73;31.79;97942.53;110174;1249;70743;-72
2022/05/09 08:33:57;;;;;;;;;;;;;;;26.11;31.93;97939.58;109924;1250;68576;-71
2022/05/09 08:39:15;;;;;;;5.90;5.00;;;;;;;25.37;31.88;97943.79;109929;1250;59787;-72
2022/05/09 08:42:05;;;;;;;5.70;4.60;;;;;;;25.55;30.97;97941.89;110191;1248;59673;-74
2022/05/09 08:45:11;;;;;;;5.70;3.90;;;;;;;25.76;30.71;97941.27;110191;1248;71414;-70
2022/05/09 08:47:49;;;;;;;4.30;3.80;;;;;;;26.07;30.18;97935.20;109908;1249;68628;-71
2022/05/09 08:50:26;;;;;;;5.80;3.70;;;;;;;26.14;30.57;97933.50;110161;1249;69440;-71
2022/05/09 08:53:07;;;;;;;5.40;4.40;;;;;;;26.41;30.48;97934.27;110191;1248;59735;-74
2022/05/09 08:55:42;;;;;;;5.00;4.40;;;;;;;26.75;30.27;97930.13;109968;1250;59673;-73
2022/05/09 08:58:37;;;;;;;6.80;5.40;;;;;;;26.46;29.97;97933.08;110020;1250;71673;-75
2022/05/09 09:01:14;;;;;;;5.60;4.00;;;;;;;26.11;30.36;97934.69;109965;1250;68578;-70
2022/05/09 09:04:14;;;;;;;4.70;3.80;;;;;;;25.65;31.33;97934.92;109828;1250;69507;-71
2022/05/09 09:06:52;;;;;;;5.80;4.00;;;;;;;25.64;31.43;97934.83;109761;1250;59694;-73
2022/05/09 09:09:35;;;;;;;5.90;4.10;;;;;;;25.28;31.60;97937.41;109905;1250;59741;-75
2022/05/09 09:12:13;;;;;;;4.10;3.70;;;;;;;25.78;30.91;97935.73;110047;1249;71580;-72
2022/05/09 09:15:12;;;;;;;6.40;4.50;;;;;;;25.92;30.58;97928.27;109914;1250;68999;-71
2022/05/09 09:17:43;;;;;;;6.80;4.80;;;;;;;25.93;31.09;97926.67;109445;1250;68488;-70
2022/05/09 09:20:23;;;;;;;4.80;4.30;;;;;;;25.72;31.69;97925.56;110164;1250;59674;-71
2022/05/09 09:23:14;;;;;;;5.40;3.90;;;;;;;25.71;31.44;97921.77;109999;1250;59618;-73
2022/05/09 09:26:01;;;;;;;5.40;4.20;;;;;;;25.70;30.99;97919.80;109913;1250;70123;-72
2022/05/09 09:28:52;;;;;;;5.30;4.40;;;;;;;26.25;29.81;97917.49;109914;1250;68019;-71
2022/05/09 09:31:34;;;;;;;6.10;4.50;;;;;;;26.82;28.44;97916.02;110124;1250;69411;-71
2022/05/09 09:34:34;;;;;;;4.90;4.10;;;;;;;27.29;27.97;97914.98;109928;1250;59744;-73
2022/05/09 09:37:13;;;;;;;6.20;4.20;;;;;;;26.96;27.72;97915.23;110005;1250;59664;-74
2022/05/09 09:39:42;;;;;;;4.80;3.50;;;;;;;27.15;27.46;97918.05;109953;1250;69740;-71
2022/05/09 09:42:12;;;;;;;;;;;;;;;27.27;27.10;97912.20;110197;1250;68598;-70
2022/05/09 09:44:47;;;;;;;4.40;3.40;;;;;;;27.62;26.73;97913.20;109713;1252;68904;-69
2022/05/09 09:47:19;;;;;;;5.30;4.30;;;;;;;27.84;26.77;97912.81;109882;1250;59649;-70
2022/05/09 09:50:29;;;;;;;4.10;3.20;;;;;;;28.25;27.67;97910.98;109969;1250;59725;-72
2022/05/09 09:53:01;;;;;;;4.20;3.80;;;;;;;28.34;26.39;97910.34;109993;1250;71537;-72
2022/05/09 09:55:38;;;;;;;4.70;3.70;;;;;;;27.93;25.29;97904.19;109917;1250;68580;-75
2022/05/09 09:58:19;;;;;;;4.50;3.90;;;;;;;28.54;25.15;97903.27;109396;1250;784653;-71
2022/05/09 10:01:06;;;;;;;4.20;3.80;;;;;;;28.60;24.27;97902.80;110029;1249;59725;-70
2022/05/09 10:03:43;;;;;;;4.00;2.80;;;;;;;29.10;24.19;97900.08;110080;1250;59689;-71
2022/05/09 10:06:19;;;;;;;5.00;3.30;;;;;;;28.85;24.33;97894.16;109773;1251;71047;-71
2022/05/09 10:09:03;;;;;;;4.00;3.50;;;;;;;28.94;25.14;97892.21;109791;1252;68611;-71
2022/05/09 10:11:33;;;;;;;4.10;3.40;;;;;;;29.10;23.91;97893.56;110018;1250;68517;-70
2022/05/09 10:14:05;;;;;;;5.60;4.10;;;;;;;29.01;24.81;97890.15;110081;1250;59749;-71
2022/05/09 10:16:48;;;;;;;3.70;3.10;;;;;;;29.38;24.08;97891.45;110173;1248;59668;-72
2022/05/09 10:19:30;;;;;;;5.40;4.20;;;;;;;28.96;24.63;97884.64;110216;1247;71049;-71
2022/05/09 10:25:13;;;;;;;4.90;3.40;;;;;;;29.83;24.04;97884.93;110020;1250;68758;-73
2022/05/09 10:27:44;;;;;;;5.20;4.00;;;;;;;29.81;23.77;97883.34;109952;1250;59750;-71
2022/05/09 10:30:16;;;;;;;5.50;4.00;;;;;;;29.27;24.53;97883.37;109833;1250;59679;-74
2022/05/09 10:33:02;;;;;;;5.70;3.60;;;;;;;28.62;25.31;97885.03;109990;1250;71572;-73
2022/05/09 10:35:40;;;;;;;4.50;3.70;;;;;;;27.98;26.18;97880.44;109990;1250;68628;-71
2022/05/09 10:38:21;;;;;;;3.70;2.90;;;;;;;27.84;26.17;97877.60;109939;1250;68668;-73
2022/05/09 10:40:55;;;;;;;4.10;3.70;;;;;;;27.46;26.09;97872.45;110115;1250;59696;-73
2022/05/09 10:43:36;;;;;;;5.30;3.30;;;;;;;27.08;27.15;97868.95;110202;1250;59670;-75
2022/05/09 10:46:13;;;;;;;3.80;3.40;;;;;;;26.69;28.18;97868.52;110132;1250;71453;-71
2022/05/09 10:48:59;;;;;;;3.80;3.20;;;;;;;26.28;28.83;97863.88;109849;1250;68664;-72
2022/05/09 10:51:39;;;;;;;4.80;4.30;;;;;;;25.65;29.95;97862.24;110136;1250;68947;-72
2022/05/09 10:54:35;;;;;;;4.40;3.90;;;;;;;25.28;29.79;97859.70;110148;1250;59748;-74
2022/05/09 10:57:05;;;;;;;5.10;4.20;;;;;;;24.91;31.04;97859.73;110236;1250;59594;-75
2022/05/09 10:59:49;;;;;;;3.80;3.30;;;;;;;25.26;30.73;97855.98;110191;1250;71378;-72
2022/05/09 11:02:27;;;;;;;4.40;3.00;;;;;;;26.08;29.78;97851.86;109873;1250;68093;-71
2022/05/09 11:04:56;;;;;;;5.50;3.30;;;;;;;27.08;28.71;97855.29;109886;1250;69500;-70
2022/05/09 11:07:30;;;;;;;4.70;4.00;;;;;;;28.01;26.11;97853.16;110088;1250;60078;-70
2022/05/09 11:10:27;;;;;;;3.70;3.20;;;;;;;28.11;25.21;97851.17;110147;1250;59676;-70
2022/05/09 11:13:02;;;;;;;5.70;4.20;;;;;;;28.87;24.40;97855.67;109986;1250;71595;-70
2022/05/09 11:15:41;;;;;;;4.50;3.50;;;;;;;29.07;26.02;97865.55;109814;1250;67863;-74
2022/05/09 11:18:32;;;;;;;3.90;3.30;;;;;;;28.25;28.60;97864.01;109885;1250;69401;-70
2022/05/09 11:21:40;;;;;;;5.10;2.80;;;;;;;27.64;29.48;97884.86;110173;1250;59736;-72
2022/05/09 11:24:30;;;;;;;3.30;3.00;;;;;;;26.46;30.02;97893.46;110149;1250;60133;-72
2022/05/09 11:27:30;;;;;;;4.00;3.00;;;;;;;25.37;31.62;97903.95;110166;1249;72165;-70
2022/05/09 11:30:51;;;;;;;4.30;2.90;;;;;;;24.95;32.20;97905.80;110185;1250;68601;-71
2022/05/09 11:33:46;;;;;;;3.80;2.70;;;;;;;24.50;31.90;97903.13;109931;1250;68918;-70
2022/05/09 11:36:15;;;;;;;2.80;2.10;;;;;;;23.63;34.18;97912.57;110154;1249;59738;-70
2022/05/09 11:39:12;;;;;;;3.40;2.50;;;;;;;24.11;33.63;97905.38;110218;1249;59647;-71
2022/05/09 11:41:48;;;;;;;3.50;2.10;;;;;;;24.71;32.57;97909.37;110177;1249;71758;-70
2022/05/09 11:44:32;;;;;;;5.20;2.00;;;;;;;25.08;31.61;97910.95;110061;1248;68684;-68
2022/05/09 11:47:08;;;;;;;3.20;1.80;;;;;;;25.02;32.38;97914.77;109937;1250;69407;-71
2022/05/09 11:50:04;;;;;;;2.70;1.80;;;;;;;25.26;31.33;97911.94;109835;1250;59733;-70
2022/05/09 11:52:45;;;;;;;1.80;1.60;;;;;;;25.07;31.27;97910.55;110145;1250;59741;-72
2022/05/09 11:55:19;;;;;;;2.90;1.60;;;;;;;24.66;31.92;97907.92;109989;1250;70801;-73
2022/05/09 11:57:56;;;;;;;2.50;1.60;;;;;;;24.33;33.44;97898.15;109952;1251;68603;-71
2022/05/09 12:00:25;;;;;;;3.20;1.50;;;;;;;24.65;32.99;97901.39;110104;1250;68639;-70
2022/05/09 12:03:10;;;;;;;2.50;1.30;;;;;;;24.84;31.53;97893.31;110163;1250;59663;-71
2022/05/09 12:05:39;;;;;;;3.30;1.60;;;;;;;24.67;31.71;97896.77;110163;1250;59693;-70